Tuesday, July 29, 2014
18:57 UTC
  |  Log In   |  Register Free
Airport Search:

Mount Sterling-Montgomery County Airport
(KIOB)

Mount Sterling-Montgomery County Airport Diagram
No Airport Diagram Available

FAA data valid effective July 24, 2014 until September 18, 2014 (unless otherwise noted).

 
 
 
 
 
 
 
 
 
 
 
 
 
 

Current Aviation Weather for Mount Sterling-Montgomery County Airport (KIOB)

The most recent METAR observation for KIOB was updated at: 1835 UTC
METAR Summary (Translated METAR)
KIOB
281835Z AUTO 31008KT 280V350 10SM SCT026 BKN038 OVC055 21/15 A3000 RMK AO2
KLEX
(29.6 nm SW from KIOB)
281844Z 31009KT 10SM FEW022 SCT028 OVC055 22/15 A3000 RMK AO2 T02170150
TAF Summary (Translated TAF)
KLEX
(29.6 nm SW from KIOB)
291731Z 2918/3018 31007KT P6SM SCT035 FM300000 VRB03KT P6SM FEW250 FM300900 VRB03KT 5SM BR SKC FM301400 28005KT P6SM SCT040
KJKL
(42 nm SE from KIOB)
291729Z 2918/3018 VRB05KT P6SM SCT020 BKN040 FM300100 VRB03KT P6SM SCT040 FM301000 00000KT 4SM BR SCT040 FM301300 VRB05KT P6SM BKN040
  Airport Weather Conditions for KIOB

 Current Weather at IOB
68° F
Mostly Cloudy
Northeast winds at 5.8 mph
IOB NOAA Radar

Pressure: 30.10 in
Humidity: 64%
Wind: Northeast at 5.8 MPH (5 KT)
Dew Point: 55.4°F
Visibility: 10.00 mi


Airport Weather Forecast for KIOB

Translated METAR and TAF for KIOB
Translated METAR for KIOB (1850 UTC 29 July 2014)
found at http://aviationweather.gov/adds/metars/
 
METAR text: KIOB 291835Z AUTO 32003KT 10SM SCT030 SCT035 21/12 A3009 RMK AO2
Conditions at: KIOB (MOUNT STERLING , KY, US) observed 1835 UTC 29 July 2014
Temperature: 21.0°C (70°F)
Dewpoint: 12.0°C (54°F) [RH = 56%]
Pressure (altimeter): 30.09 inches Hg (1019.0 mb)
Winds: from the NW (320 degrees) at 3 MPH (3 knots; 1.6 m/s)
Visibility: 10 or more miles (16+ km)
Ceiling: at least 12,000 feet AGL
Clouds: scattered clouds at 3000 feet AGL
scattered clouds at 3500 feet AGL
Weather: automated observation with no human augmentation;
there may or may not be significant weather present at this time
Translated TAF for KIOB

There is no translated TAF available for this airport

Find All Airport Services Find A Hotel Find A Rental Car Find A Golf Course Find A Restaurant $100 Hamburger



FBO's on the Field
FBO Company Facility Photos Services Transportation Aviation Fuel Prices: Prices include tax
Catering Weather Repair Courtesy Rental Type 100LL JetA JetA+ MOGAS 8087
 
Kentucky Airmotive Inc

This FBO has not yet been rated
FS:Shell
Last Updated: Jul-10
Login to update fuel prices
SS:
Contact Kentucky Airmotive IncMore FBO Information
 
Add another FBO Facility Photos Catering Weather Repair Courtesy Rental Type 100LL JetA JetA+ MOGAS 8087
Services Transportation Aviation Fuel Prices: Prices include tax


GlobalAir.com Airport Resource Center model-print
model-print
model-print
model-print